createdAt,value
2019-04-30T00:02:29.306Z,100.00
2019-04-30T00:04:52.906Z,100.00
2019-04-30T00:07:20.162Z,100.00
2019-04-30T00:09:49.331Z,100.00
2019-04-30T00:12:16.456Z,100.00
2019-04-30T00:14:44.894Z,100.00
2019-04-30T00:17:15.915Z,100.00
2019-04-30T00:19:41.158Z,100.00
2019-04-30T00:22:08.290Z,100.00
2019-04-30T00:24:35.581Z,100.00
2019-04-30T00:27:05.012Z,100.00
2019-04-30T00:29:32.064Z,100.00
2019-04-30T00:32:04.215Z,100.00
2019-04-30T00:34:30.914Z,100.00
2019-04-30T00:36:57.653Z,100.00
2019-04-30T00:39:27.032Z,100.00
2019-04-30T00:41:54.662Z,100.00
2019-04-30T00:44:24.778Z,100.00
2019-04-30T00:46:55.777Z,100.00
2019-04-30T00:49:24.160Z,100.00
2019-04-30T00:51:58.061Z,100.00
2019-04-30T00:54:27.987Z,100.00
2019-04-30T00:56:52.411Z,100.00
2019-04-30T00:59:19.822Z,100.00
2019-04-30T01:02:11.866Z,100.00
2019-04-30T01:04:44.954Z,100.00
2019-04-30T01:07:12.831Z,100.00
2019-04-30T01:09:46.530Z,100.00
2019-04-30T01:12:08.998Z,100.00
2019-04-30T01:14:36.074Z,100.00
2019-04-30T01:17:07.848Z,100.00
2019-04-30T01:19:33.049Z,100.00
2019-04-30T01:22:00.398Z,100.00
2019-04-30T01:24:31.651Z,100.00
2019-04-30T01:27:06.599Z,100.00
2019-04-30T01:29:31.165Z,100.00
2019-04-30T01:31:58.727Z,100.00
2019-04-30T01:34:25.873Z,100.00
2019-04-30T01:36:53.548Z,100.00
2019-04-30T01:39:23.761Z,100.00
2019-04-30T01:41:49.991Z,100.00
2019-04-30T01:44:17.085Z,100.00
2019-04-30T01:46:48.266Z,100.00
2019-04-30T01:49:14.305Z,100.00
2019-04-30T01:51:41.426Z,100.00
2019-04-30T01:54:09.232Z,100.00
2019-04-30T01:56:47.506Z,100.00
2019-04-30T01:59:19.064Z,100.00
2019-04-30T02:01:48.630Z,100.00
2019-04-30T02:04:15.950Z,100.00
2019-04-30T02:06:43.169Z,100.00
2019-04-30T02:09:10.281Z,100.00
2019-04-30T02:11:38.823Z,100.00
2019-04-30T02:14:06.029Z,100.00
2019-04-30T02:16:33.127Z,100.00
2019-04-30T02:19:00.243Z,100.00
2019-04-30T02:21:27.329Z,100.00
2019-04-30T02:23:54.410Z,100.00
2019-04-30T02:26:21.528Z,100.00
2019-04-30T02:28:49.513Z,100.00
2019-04-30T02:31:19.324Z,100.00
2019-04-30T02:33:50.277Z,100.00
2019-04-30T02:36:45.957Z,100.00
2019-04-30T02:39:13.045Z,100.00
2019-04-30T02:41:41.405Z,100.00
2019-04-30T02:44:09.853Z,100.00
2019-04-30T02:46:40.504Z,100.00
2019-04-30T02:49:10.501Z,100.00
2019-04-30T02:51:39.962Z,100.00
2019-04-30T02:54:23.705Z,100.00
2019-04-30T02:56:53.859Z,100.00
2019-04-30T02:59:20.810Z,100.00
2019-04-30T03:01:50.251Z,100.00
2019-04-30T03:04:19.413Z,100.00
2019-04-30T03:06:45.456Z,100.00
2019-04-30T03:09:13.634Z,100.00
2019-04-30T03:11:41.091Z,100.00
2019-04-30T03:14:10.343Z,100.00
2019-04-30T03:16:52.718Z,100.00
2019-04-30T03:19:41.898Z,100.00
2019-04-30T03:22:13.545Z,100.00
2019-04-30T03:24:42.908Z,100.00
2019-04-30T03:27:12.321Z,100.00
2019-04-30T03:29:40.491Z,100.00
2019-04-30T03:32:12.404Z,100.00
2019-04-30T03:34:41.369Z,100.00
2019-04-30T03:37:05.439Z,100.00
2019-04-30T03:39:34.039Z,100.00
2019-04-30T03:42:01.323Z,100.00
2019-04-30T03:47:36.334Z,100.00
2019-04-30T03:50:04.688Z,100.00
2019-04-30T03:52:31.636Z,100.00
2019-04-30T03:55:02.444Z,100.00
2019-04-30T03:57:30.115Z,100.00
2019-04-30T03:59:56.342Z,100.00
2019-04-30T04:02:40.512Z,100.00
2019-04-30T04:05:40.001Z,100.00
2019-04-30T04:08:29.276Z,100.00
2019-04-30T04:11:15.465Z,100.00
2019-04-30T04:13:42.431Z,100.00
2019-04-30T04:16:09.754Z,100.00
2019-04-30T04:18:36.905Z,100.00
2019-04-30T04:21:12.109Z,100.00
2019-04-30T04:23:33.039Z,100.00
2019-04-30T04:26:00.067Z,100.00
2019-04-30T04:28:29.425Z,100.00
2019-04-30T04:30:56.138Z,100.00
2019-04-30T04:33:23.274Z,100.00
2019-04-30T04:35:50.416Z,100.00
2019-04-30T04:38:20.201Z,100.00
2019-04-30T04:40:46.517Z,100.00
2019-04-30T04:43:15.174Z,100.00
2019-04-30T04:45:43.835Z,100.00
2019-04-30T04:48:10.958Z,100.00
2019-04-30T04:50:39.951Z,100.00
2019-04-30T04:53:08.885Z,100.00
2019-04-30T04:55:35.736Z,100.00
2019-04-30T04:58:02.685Z,100.00
2019-04-30T05:00:29.703Z,100.00
2019-04-30T05:03:22.273Z,100.00
2019-04-30T05:05:50.413Z,100.00
2019-04-30T05:08:21.916Z,100.00
2019-04-30T05:10:49.505Z,100.00
2019-04-30T05:13:16.816Z,100.00
2019-04-30T05:15:43.744Z,100.00
2019-04-30T05:18:10.687Z,100.00
2019-04-30T05:20:39.885Z,100.00
2019-04-30T05:23:06.729Z,100.00
2019-04-30T05:25:33.787Z,100.00
2019-04-30T05:28:00.832Z,100.00
2019-04-30T05:30:29.462Z,100.00
2019-04-30T05:32:56.489Z,100.00
2019-04-30T05:35:23.590Z,100.00
2019-04-30T05:37:50.526Z,100.00
2019-04-30T05:40:18.889Z,100.00
2019-04-30T05:42:46.104Z,100.00
2019-04-30T05:45:13.357Z,100.00
2019-04-30T05:47:58.788Z,100.00
2019-04-30T05:50:32.224Z,100.00
2019-04-30T05:52:59.783Z,100.00
2019-04-30T05:55:26.739Z,100.00
2019-04-30T05:57:56.339Z,100.00
2019-04-30T06:00:22.758Z,100.00
2019-04-30T06:02:49.897Z,100.00
2019-04-30T06:05:18.760Z,100.00
2019-04-30T06:07:45.970Z,100.00
2019-04-30T06:10:23.184Z,100.00
2019-04-30T06:12:54.946Z,100.00
2019-04-30T06:15:41.367Z,100.00
2019-04-30T06:18:13.493Z,100.00
2019-04-30T06:20:38.625Z,100.00
2019-04-30T06:23:05.686Z,100.00
2019-04-30T06:25:52.097Z,100.00
2019-04-30T06:28:02.069Z,100.00
2019-04-30T06:30:29.814Z,100.00
2019-04-30T06:32:57.551Z,100.00
2019-04-30T06:35:25.785Z,100.00
2019-04-30T06:37:52.791Z,100.00
2019-04-30T06:40:19.945Z,100.00
2019-04-30T06:42:49.377Z,100.00
2019-04-30T06:45:16.608Z,100.00
2019-04-30T06:47:43.546Z,100.00
2019-04-30T06:50:12.490Z,100.00
2019-04-30T06:52:39.494Z,100.00
2019-04-30T06:55:06.511Z,100.00
2019-04-30T06:57:35.271Z,100.00
2019-04-30T07:00:02.348Z,100.00
2019-04-30T07:02:30.951Z,100.00
2019-04-30T07:04:58.779Z,100.00
2019-04-30T07:07:37.110Z,100.00
2019-04-30T07:10:16.969Z,100.00
2019-04-30T07:12:53.102Z,100.00
2019-04-30T07:15:20.033Z,100.00
2019-04-30T07:17:49.009Z,100.00
2019-04-30T07:20:15.829Z,100.00
2019-04-30T07:22:50.069Z,100.00
2019-04-30T07:25:11.871Z,100.00
2019-04-30T07:27:40.129Z,100.00
2019-04-30T07:30:09.928Z,100.00
2019-04-30T07:32:38.738Z,100.00
2019-04-30T07:35:06.087Z,100.00
2019-04-30T07:37:33.065Z,100.00
2019-04-30T07:40:00.110Z,100.00
2019-04-30T07:42:28.894Z,100.00
2019-04-30T07:44:56.019Z,100.00
2019-04-30T07:47:22.974Z,100.00
2019-04-30T07:49:55.671Z,100.00
2019-04-30T07:52:21.717Z,100.00
2019-04-30T07:54:52.116Z,100.00
2019-04-30T07:57:19.389Z,100.00
2019-04-30T07:59:46.450Z,100.00
2019-04-30T08:02:14.729Z,100.00
2019-04-30T08:05:10.501Z,100.00
2019-04-30T08:07:37.040Z,100.00
2019-04-30T08:10:05.690Z,100.00
2019-04-30T08:12:36.428Z,100.00
2019-04-30T08:15:01.625Z,100.00
2019-04-30T08:17:29.004Z,100.00
2019-04-30T08:19:55.970Z,99.30
2019-04-30T08:22:22.912Z,98.17
2019-04-30T08:24:49.909Z,97.12
2019-04-30T08:27:19.159Z,97.12
2019-04-30T08:29:46.131Z,96.05
2019-04-30T08:32:13.123Z,95.56
2019-04-30T08:34:40.115Z,95.30
2019-04-30T08:37:17.083Z,94.30
2019-04-30T08:39:39.727Z,92.98
2019-04-30T08:42:14.389Z,92.61
2019-04-30T08:44:41.386Z,93.02
2019-04-30T08:47:08.702Z,92.41
2019-04-30T08:49:36.041Z,91.29
2019-04-30T08:52:03.153Z,90.35
2019-04-30T08:54:30.226Z,89.66
2019-04-30T08:56:57.169Z,89.77
2019-04-30T08:59:24.191Z,88.90
2019-04-30T09:01:51.150Z,86.31
2019-04-30T09:04:20.129Z,86.44
2019-04-30T09:06:49.158Z,85.35
2019-04-30T09:09:20.629Z,85.48
2019-04-30T09:11:53.040Z,85.73
2019-04-30T09:14:18.545Z,85.70
2019-04-30T09:16:45.471Z,84.77
2019-04-30T09:19:12.545Z,84.76
2019-04-30T09:21:41.325Z,83.38
2019-04-30T09:24:09.494Z,82.80
2019-04-30T09:26:36.623Z,82.16
2019-04-30T09:29:03.711Z,82.29
2019-04-30T09:31:30.628Z,81.52
2019-04-30T09:33:58.814Z,80.03
2019-04-30T09:36:26.457Z,80.29
2019-04-30T09:38:53.386Z,80.54
2019-04-30T09:41:20.345Z,79.88
2019-04-30T09:43:49.245Z,80.46
2019-04-30T09:46:24.566Z,80.24
2019-04-30T09:48:45.071Z,80.24
2019-04-30T09:51:20.695Z,80.53
2019-04-30T09:53:56.911Z,80.11
2019-04-30T09:56:39.339Z,80.07
2019-04-30T09:59:06.405Z,79.77
2019-04-30T10:01:33.442Z,80.58
2019-04-30T10:04:00.965Z,80.83
2019-04-30T10:06:39.019Z,81.16
2019-04-30T10:08:57.053Z,81.94
2019-04-30T10:11:38.785Z,81.35
2019-04-30T10:14:05.757Z,80.84
2019-04-30T10:16:41.348Z,79.25
2019-04-30T10:19:10.204Z,80.14
2019-04-30T10:21:38.887Z,78.13
2019-04-30T10:24:14.756Z,77.97
2019-04-30T10:26:34.836Z,76.91
2019-04-30T10:29:02.287Z,77.88
2019-04-30T10:31:29.422Z,78.43
2019-04-30T10:33:58.525Z,78.48
2019-04-30T10:36:25.430Z,78.30
2019-04-30T10:38:52.353Z,78.20
2019-04-30T10:41:20.623Z,77.70
2019-04-30T10:43:49.190Z,78.61
2019-04-30T10:46:16.557Z,78.84
2019-04-30T10:48:43.561Z,77.72
2019-04-30T10:51:10.497Z,75.49
2019-04-30T10:53:37.453Z,76.35
2019-04-30T10:56:04.423Z,76.02
2019-04-30T10:58:31.393Z,75.54
2019-04-30T11:00:59.499Z,74.93
2019-04-30T11:03:29.063Z,74.45
2019-04-30T11:05:56.191Z,71.49
2019-04-30T11:08:23.146Z,72.21
2019-04-30T11:10:50.213Z,72.39
2019-04-30T11:13:17.151Z,71.69
2019-04-30T11:15:44.424Z,71.68
2019-04-30T11:18:11.561Z,72.68
2019-04-30T11:20:39.719Z,72.29
2019-04-30T11:23:14.195Z,71.73
2019-04-30T11:25:36.908Z,71.26
2019-04-30T11:28:04.903Z,71.35
2019-04-30T11:30:32.605Z,71.51
2019-04-30T11:32:59.780Z,71.26
2019-04-30T11:35:26.886Z,71.27
2019-04-30T11:37:53.831Z,70.64
2019-04-30T11:40:34.296Z,70.56
2019-04-30T11:42:54.955Z,69.35
2019-04-30T11:45:24.123Z,69.63
2019-04-30T11:47:53.581Z,68.13
2019-04-30T11:50:20.736Z,67.62
2019-04-30T11:52:47.764Z,65.19
2019-04-30T11:55:16.144Z,63.81
2019-04-30T11:57:43.084Z,63.90
2019-04-30T12:00:14.731Z,62.60
2019-04-30T12:02:42.027Z,62.20
2019-04-30T12:05:12.143Z,61.98
2019-04-30T12:07:53.527Z,60.49
2019-04-30T12:10:40.131Z,59.09
2019-04-30T12:13:23.096Z,58.53
2019-04-30T12:15:50.208Z,59.56
2019-04-30T12:18:17.190Z,57.37
2019-04-30T12:20:44.183Z,55.25
2019-04-30T12:23:11.898Z,55.04
2019-04-30T12:25:41.264Z,54.15
2019-04-30T12:28:09.516Z,54.99
2019-04-30T12:31:31.565Z,54.00
2019-04-30T12:33:58.531Z,54.59
2019-04-30T12:36:25.500Z,52.33
2019-04-30T12:38:52.486Z,53.29
2019-04-30T12:41:19.424Z,52.65
2019-04-30T12:43:46.361Z,53.15
2019-04-30T12:46:13.407Z,52.62
2019-04-30T12:48:54.841Z,52.38
2019-04-30T12:51:45.308Z,51.28
2019-04-30T12:54:10.583Z,48.25
2019-04-30T12:56:55.739Z,49.07
2019-04-30T12:59:22.775Z,48.12
2019-04-30T13:01:50.977Z,47.60
2019-04-30T13:04:19.380Z,45.82
2019-04-30T13:07:04.240Z,46.22
2019-04-30T13:09:32.253Z,47.33
2019-04-30T13:12:00.721Z,47.99
2019-04-30T13:14:29.943Z,48.54
2019-04-30T13:17:17.645Z,47.26
2019-04-30T13:19:44.621Z,47.71
2019-04-30T13:22:11.673Z,46.84
2019-04-30T13:24:39.872Z,45.37
2019-04-30T13:27:09.420Z,47.49
2019-04-30T13:29:55.031Z,46.94
2019-04-30T13:32:30.064Z,44.25
2019-04-30T13:34:54.738Z,45.63
2019-04-30T13:37:21.710Z,46.17
2019-04-30T13:40:11.142Z,46.57
2019-04-30T13:42:41.719Z,48.56
2019-04-30T13:45:10.077Z,49.42
2019-04-30T13:47:38.975Z,50.03
2019-04-30T13:50:05.939Z,50.00
2019-04-30T13:52:32.894Z,51.78
2019-04-30T13:54:59.892Z,51.99
2019-04-30T13:57:26.841Z,49.24
2019-04-30T13:59:58.622Z,50.14
2019-04-30T14:02:26.246Z,49.69
2019-04-30T14:05:12.351Z,49.67
2019-04-30T14:10:49.332Z,51.41
2019-04-30T14:13:17.642Z,51.54
2019-04-30T14:15:46.429Z,52.80
2019-04-30T14:18:27.933Z,52.33
2019-04-30T14:20:44.821Z,51.44
2019-04-30T14:23:13.682Z,51.33
2019-04-30T14:25:40.697Z,52.54
2019-04-30T14:28:09.384Z,51.48
2019-04-30T14:30:41.011Z,53.63
2019-04-30T14:33:09.443Z,55.07
2019-04-30T14:35:38.488Z,52.81
2019-04-30T14:38:05.504Z,54.11
2019-04-30T14:40:34.541Z,53.19
2019-04-30T14:43:13.786Z,55.00
2019-04-30T14:46:03.240Z,54.62
2019-04-30T14:48:36.252Z,53.56
2019-04-30T14:51:04.147Z,53.84
2019-04-30T14:53:48.989Z,51.93
2019-04-30T14:56:35.695Z,53.32
2019-04-30T14:59:20.926Z,55.19
2019-04-30T15:02:09.604Z,54.71
2019-04-30T15:04:36.718Z,55.87
2019-04-30T15:07:03.655Z,55.17
2019-04-30T15:09:30.625Z,56.51
2019-04-30T15:11:58.622Z,57.95
2019-04-30T15:14:25.729Z,57.46
2019-04-30T15:17:29.346Z,57.20
2019-04-30T15:19:56.331Z,56.96
2019-04-30T15:22:23.323Z,57.44
2019-04-30T15:24:50.316Z,57.69
2019-04-30T15:27:19.096Z,58.18
2019-04-30T15:29:46.271Z,58.67
2019-04-30T15:32:13.251Z,58.01
2019-04-30T15:34:42.396Z,59.23
2019-04-30T15:37:19.052Z,59.11
2019-04-30T15:39:43.485Z,58.75
2019-04-30T15:42:11.942Z,58.48
2019-04-30T15:44:42.613Z,58.75
2019-04-30T15:47:09.183Z,58.80
2019-04-30T15:49:40.811Z,58.35
2019-04-30T15:52:10.617Z,57.42
2019-04-30T15:54:36.845Z,58.55
2019-04-30T15:57:04.062Z,58.49
2019-04-30T15:59:41.205Z,59.42
2019-04-30T16:02:53.479Z,60.28
2019-04-30T16:05:34.406Z,60.57
2019-04-30T16:08:19.768Z,61.31
2019-04-30T16:10:58.564Z,61.05
2019-04-30T16:13:30.567Z,60.38
2019-04-30T16:15:59.182Z,62.01
2019-04-30T16:18:30.596Z,61.65
2019-04-30T16:20:59.424Z,61.72
2019-04-30T16:23:26.404Z,62.44
2019-04-30T16:25:53.389Z,62.51
2019-04-30T16:28:20.359Z,62.18
2019-04-30T16:30:47.473Z,61.98
2019-04-30T16:33:43.300Z,63.06
2019-04-30T16:36:10.260Z,62.89
2019-04-30T16:38:38.658Z,62.64
2019-04-30T16:41:05.913Z,62.73
2019-04-30T16:43:33.005Z,63.54
2019-04-30T16:45:59.955Z,62.94
2019-04-30T16:48:29.055Z,63.99
2019-04-30T16:50:56.112Z,63.91
2019-04-30T16:53:25.098Z,64.62
2019-04-30T16:55:52.066Z,64.58
2019-04-30T16:58:20.205Z,64.75
2019-04-30T17:00:49.113Z,65.84
2019-04-30T17:03:23.306Z,66.17
2019-04-30T17:05:55.934Z,66.96
2019-04-30T17:11:59.486Z,67.11
2019-04-30T17:14:28.508Z,67.05
2019-04-30T17:16:55.800Z,67.19
2019-04-30T17:19:22.791Z,66.70
2019-04-30T17:21:51.782Z,66.87
2019-04-30T17:24:27.745Z,67.16
2019-04-30T17:26:54.768Z,68.03
2019-04-30T17:29:21.787Z,67.97
2019-04-30T17:31:48.758Z,68.73
2019-04-30T17:34:15.731Z,69.60
2019-04-30T17:36:42.725Z,68.77
2019-04-30T17:39:12.492Z,68.88
2019-04-30T17:41:39.484Z,69.02
2019-04-30T17:44:06.624Z,69.83
2019-04-30T17:46:33.627Z,70.64
2019-04-30T17:49:00.734Z,70.50
2019-04-30T17:51:36.926Z,70.78
2019-04-30T17:54:12.669Z,71.59
2019-04-30T17:56:39.980Z,72.18
2019-04-30T17:59:06.955Z,72.06
2019-04-30T18:01:34.728Z,72.60
2019-04-30T18:04:01.733Z,73.03
2019-04-30T18:06:32.897Z,73.91
2019-04-30T18:08:59.866Z,74.93
2019-04-30T18:11:26.846Z,75.81
2019-04-30T18:13:53.920Z,76.81
2019-04-30T18:16:20.885Z,77.41
2019-04-30T18:18:53.907Z,78.08
2019-04-30T18:21:26.616Z,78.57
2019-04-30T18:24:15.944Z,79.21
2019-04-30T18:26:51.316Z,79.86
2019-04-30T18:29:18.378Z,80.61
2019-04-30T18:31:55.824Z,81.00
2019-04-30T18:34:22.847Z,81.54
2019-04-30T18:36:51.261Z,82.04
2019-04-30T18:39:18.905Z,82.64
2019-04-30T18:41:46.161Z,83.35
2019-04-30T18:44:13.094Z,84.26
2019-04-30T18:46:40.306Z,85.44
2019-04-30T18:49:14.547Z,85.74
2019-04-30T18:51:42.669Z,86.29
2019-04-30T18:54:10.252Z,86.95
2019-04-30T18:56:38.907Z,87.83
2019-04-30T18:59:11.158Z,88.53
2019-04-30T19:01:38.336Z,89.04
2019-04-30T19:04:05.389Z,89.57
2019-04-30T19:06:54.217Z,90.29
2019-04-30T19:09:43.290Z,91.11
2019-04-30T19:12:39.029Z,91.72
2019-04-30T19:16:10.865Z,92.54
2019-04-30T19:18:21.250Z,93.45
2019-04-30T19:20:51.033Z,94.09
2019-04-30T19:23:19.042Z,94.51
2019-04-30T19:25:46.254Z,95.49
2019-04-30T19:28:34.974Z,96.38
2019-04-30T19:31:01.954Z,97.06
2019-04-30T19:33:31.042Z,97.31
2019-04-30T19:35:58.626Z,97.87
2019-04-30T19:38:25.733Z,98.28
2019-04-30T19:40:52.898Z,98.70
2019-04-30T19:43:28.458Z,99.32
2019-04-30T19:45:55.341Z,99.67
2019-04-30T19:48:22.339Z,100.00
2019-04-30T19:50:49.325Z,100.00
2019-04-30T19:53:19.976Z,100.00
2019-04-30T19:55:45.510Z,100.00
2019-04-30T19:58:25.299Z,100.00
2019-04-30T20:00:42.406Z,100.00
2019-04-30T20:03:09.350Z,100.00
2019-04-30T20:05:36.410Z,100.00
2019-04-30T20:08:03.772Z,100.00
2019-04-30T20:10:30.750Z,100.00
2019-04-30T20:12:58.790Z,100.00
2019-04-30T20:15:26.060Z,100.00
2019-04-30T20:17:53.028Z,100.00
2019-04-30T20:20:20.135Z,100.00
2019-04-30T20:22:47.269Z,100.00
2019-04-30T20:25:14.329Z,100.00
2019-04-30T20:27:42.120Z,100.00
2019-04-30T20:30:46.686Z,100.00
2019-04-30T20:33:13.695Z,100.00
2019-04-30T20:35:41.211Z,100.00
2019-04-30T20:39:07.494Z,100.00
2019-04-30T20:41:34.458Z,100.00
2019-04-30T20:44:01.393Z,100.00
2019-04-30T20:47:05.193Z,100.00
2019-04-30T20:49:32.251Z,100.00
2019-04-30T20:52:00.184Z,100.00
2019-04-30T20:54:45.872Z,100.00
2019-04-30T20:57:12.851Z,100.00
2019-04-30T20:59:39.913Z,100.00
2019-04-30T21:02:06.961Z,100.00
2019-04-30T21:04:33.901Z,100.00
2019-04-30T21:07:00.840Z,100.00
2019-04-30T21:09:27.967Z,100.00
2019-04-30T21:11:54.904Z,100.00
2019-04-30T21:14:40.631Z,100.00
2019-04-30T21:17:08.273Z,100.00
2019-04-30T21:19:35.219Z,100.00
2019-04-30T21:22:03.441Z,100.00
2019-04-30T21:24:30.396Z,100.00
2019-04-30T21:26:57.401Z,100.00
2019-04-30T21:29:24.485Z,100.00
2019-04-30T21:32:21.377Z,100.00
2019-04-30T21:34:55.328Z,100.00
2019-04-30T21:37:22.310Z,100.00
2019-04-30T21:39:50.128Z,100.00
2019-04-30T21:42:17.381Z,100.00
2019-04-30T21:44:44.433Z,100.00
2019-04-30T21:47:11.393Z,100.00
2019-04-30T21:49:38.386Z,100.00
2019-04-30T21:52:05.337Z,100.00
2019-04-30T21:54:32.401Z,100.00
2019-04-30T21:56:59.381Z,100.00
2019-04-30T21:59:30.731Z,100.00
2019-04-30T22:01:57.884Z,100.00
2019-04-30T22:04:24.913Z,100.00
2019-04-30T22:06:52.002Z,100.00
2019-04-30T22:09:19.437Z,100.00
2019-04-30T22:11:52.587Z,100.00
2019-04-30T22:14:19.541Z,100.00
2019-04-30T22:16:46.711Z,100.00
2019-04-30T22:19:13.808Z,100.00
2019-04-30T22:21:40.774Z,100.00
2019-04-30T22:24:07.800Z,100.00
2019-04-30T22:26:34.765Z,100.00
2019-04-30T22:29:01.727Z,100.00
2019-04-30T22:31:29.658Z,100.00
2019-04-30T22:33:58.855Z,100.00
2019-04-30T22:36:31.943Z,100.00
2019-04-30T22:39:19.980Z,100.00
2019-04-30T22:41:47.156Z,100.00
2019-04-30T22:44:14.172Z,100.00
2019-04-30T22:46:41.145Z,100.00
2019-04-30T22:49:08.282Z,100.00
2019-04-30T22:51:37.055Z,100.00
2019-04-30T22:54:07.036Z,100.00
2019-04-30T22:56:34.056Z,100.00
2019-04-30T22:59:00.986Z,100.00
2019-04-30T23:02:11.997Z,100.00
2019-04-30T23:04:40.721Z,100.00
2019-04-30T23:07:07.784Z,100.00
2019-04-30T23:09:34.852Z,100.00
2019-04-30T23:12:02.500Z,100.00
2019-04-30T23:14:29.463Z,100.00
2019-04-30T23:16:56.586Z,100.00
2019-04-30T23:19:23.687Z,100.00
2019-04-30T23:21:50.628Z,100.00
2019-04-30T23:24:17.630Z,100.00
2019-04-30T23:26:44.586Z,100.00
2019-04-30T23:29:11.664Z,100.00
2019-04-30T23:31:38.616Z,100.00
2019-04-30T23:34:17.405Z,100.00
2019-04-30T23:36:34.461Z,100.00
2019-04-30T23:39:01.518Z,100.00
2019-04-30T23:41:28.545Z,100.00
2019-04-30T23:43:55.484Z,100.00
2019-04-30T23:46:26.303Z,100.00
2019-04-30T23:48:53.347Z,100.00
2019-04-30T23:51:20.320Z,100.00
2019-04-30T23:53:54.781Z,100.00
2019-04-30T23:56:21.724Z,100.00
2019-04-30T23:58:48.747Z,100.00
